^^
Station Historical Data
Daily Summary for February 12, 2017 Units:  English    Metric   Both
« Previous Day
Next Day »
Daily Weekly Monthly Yearly Custom
  High: Low: Average:
Temperature: 37.1 °F 32.0 °F 33.6 °F
Dew Point: 34.3 °F 28.9 °F 30.7 °F
Humidity: 95 % 73 % 89 %
Wind Speed: 18.6 mph 0.0 mph 1.9 mph
Wind Gust: 34.5 mph - -
Wind:- - ESE
Pressure: 30.09 in 29.69 in -
Precipitation: 0.29 in    
Historical Graphs
 
 
Tabular Data for February 12, 2017
Time Temperature Dew Point Pressure Wind Wind Speed Wind Gust Humidity Rainfall Rate (Hourly) solar Conditions
00:00 37.1 °F 29.6 °F 30.08 in Calm     74 % 0.00 in 0.0 W/m2 CLR
00:05 37.1 °F 29.2 °F 30.08 in Calm     73 % 0.00 in 0.0 W/m2 RA
00:10 37.0 °F 29.1 °F 30.08 in Calm     73 % 0.00 in 0.0 W/m2 CLR
00:15 37.0 °F 29.1 °F 30.09 in Calm     73 % 0.00 in 0.0 W/m2 CLR
00:20 36.8 °F 29.0 °F 30.09 in NNW 1.6 mph 2.3 mph 73 % 0.00 in 0.0 W/m2 CLR
00:25 36.7 °F 29.2 °F 30.09 in NNW 1.4 mph 2.3 mph 74 % 0.00 in 0.0 W/m2 CLR
00:30 36.8 °F 29.3 °F 30.09 in Calm     74 % 0.00 in 0.0 W/m2 CLR
00:35 36.8 °F 29.3 °F 30.09 in NNW 1.3 mph 2.3 mph 74 % 0.00 in 0.0 W/m2 CLR
00:40 36.7 °F 29.2 °F 30.08 in Calm     74 % 0.00 in 0.0 W/m2 CLR
00:45 36.7 °F 29.2 °F 30.08 in North 3.3 mph 4.6 mph 74 % 0.00 in 0.0 W/m2 CLR
00:50 36.8 °F 29.0 °F 30.08 in North 2.0 mph 3.5 mph 73 % 0.00 in 0.0 W/m2 CLR
00:55 36.8 °F 29.0 °F 30.08 in NNE 2.7 mph 3.5 mph 73 % 0.00 in 0.0 W/m2 CLR
01:00 36.8 °F 29.0 °F 30.08 in NNE 2.4 mph 4.0 mph 73 % 0.00 in 0.0 W/m2 CLR
01:05 36.8 °F 29.0 °F 30.08 in NNE 0.3 mph 2.3 mph 73 % 0.00 in 0.0 W/m2 CLR
01:10 36.8 °F 29.0 °F 30.08 in NNE 1.3 mph 2.3 mph 73 % 0.00 in 0.0 W/m2 CLR
01:15 36.8 °F 29.0 °F 30.08 in Calm   2.3 mph 73 % 0.00 in 0.0 W/m2 CLR
01:20 36.7 °F 28.9 °F 30.08 in Calm     73 % 0.00 in 0.0 W/m2 CLR
01:25 36.8 °F 29.3 °F 30.08 in Calm     74 % 0.00 in 0.0 W/m2 CLR
01:30 36.8 °F 29.3 °F 30.08 in Calm     74 % 0.00 in 0.0 W/m2 CLR
01:35 36.8 °F 29.0 °F 30.08 in Calm     73 % 0.00 in 0.0 W/m2 CLR
01:40 36.9 °F 29.4 °F 30.08 in NNE 1.1 mph 2.3 mph 74 % 0.00 in 0.0 W/m2 CLR
01:45 36.9 °F 29.4 °F 30.08 in Calm     74 % 0.00 in 0.0 W/m2 CLR
01:50 36.9 °F 29.4 °F 30.08 in Calm     74 % 0.00 in 0.0 W/m2 CLR
01:55 36.8 °F 29.6 °F 30.08 in Calm     75 % 0.00 in 0.0 W/m2 CLR
02:00 36.8 °F 29.9 °F 30.08 in Calm     76 % 0.00 in 0.0 W/m2 CLR
02:05 36.7 °F 29.8 °F 30.08 in Calm     76 % 0.00 in 0.0 W/m2 CLR
02:10 36.6 °F 29.7 °F 30.08 in Calm     76 % 0.00 in 0.0 W/m2 CLR
02:15 36.4 °F 29.9 °F 30.08 in Calm     77 % 0.00 in 0.0 W/m2 CLR
02:20 36.2 °F 30.0 °F 30.07 in Calm     78 % 0.00 in 0.0 W/m2 CLR
02:25 36.1 °F 29.9 °F 30.07 in Calm     78 % 0.01 in 0.0 W/m2 RA
02:30 36.1 °F 29.9 °F 30.07 in NNE 0.3 mph 1.2 mph 78 % 0.01 in 0.0 W/m2 RA
02:35 35.9 °F 30.0 °F 30.07 in NNE 0.3 mph   79 % 0.01 in 0.0 W/m2 CLR
02:40 35.8 °F 29.9 °F 30.07 in Calm     79 % 0.01 in 0.0 W/m2 CLR
02:46 35.8 °F 30.2 °F 30.06 in NNE 2.1 mph 3.5 mph 80 % 0.01 in 0.0 W/m2 CLR
02:51 35.8 °F 30.2 °F 30.06 in Calm     80 % 0.01 in 0.0 W/m2 CLR
02:56 35.8 °F 30.2 °F 30.06 in NNE 1.7 mph 2.3 mph 80 % 0.01 in 0.0 W/m2 CLR
03:01 35.8 °F 30.2 °F 30.07 in NNE 2.5 mph 3.5 mph 80 % 0.01 in 0.0 W/m2 CLR
03:06 35.9 °F 30.3 °F 30.07 in NNE 2.3 mph 3.5 mph 80 % 0.01 in 0.0 W/m2 CLR
03:11 35.9 °F 30.3 °F 30.07 in NNE 3.3 mph 3.5 mph 80 % 0.01 in 0.0 W/m2 CLR
03:16 36.0 °F 30.4 °F 30.07 in NNE 2.8 mph 3.5 mph 80 % 0.01 in 0.0 W/m2 CLR
03:21 36.0 °F 30.7 °F 30.07 in NNE 2.7 mph 4.6 mph 81 % 0.01 in 0.0 W/m2 CLR
03:26 36.0 °F 30.7 °F 30.07 in NNE 0.8 mph 3.5 mph 81 % 0.00 in 0.0 W/m2 CLR
03:31 35.9 °F 30.6 °F 30.08 in NNE 2.3 mph 3.5 mph 81 % 0.01 in 0.0 W/m2 RA
03:36 35.8 °F 30.5 °F 30.09 in NNE 2.6 mph 4.0 mph 81 % 0.01 in 0.0 W/m2 RA
03:41 35.7 °F 30.7 °F 30.09 in NNE 1.5 mph 3.5 mph 82 % 0.01 in 0.0 W/m2 CLR
03:46 35.6 °F 30.6 °F 30.09 in NNE 2.8 mph 3.5 mph 82 % 0.01 in 0.0 W/m2 CLR
03:51 35.5 °F 30.8 °F 30.09 in Calm     83 % 0.01 in 0.0 W/m2 CLR
03:56 35.3 °F 30.7 °F 30.08 in NNE 1.0 mph 2.0 mph 83 % 0.01 in 0.0 W/m2 CLR
04:01 35.2 °F 30.9 °F 30.08 in NNE 0.5 mph 2.3 mph 84 % 0.01 in 0.0 W/m2 CLR
04:06 35.1 °F 30.8 °F 30.08 in NNE 1.6 mph 2.3 mph 84 % 0.01 in 0.0 W/m2 CLR
04:11 35.0 °F 30.9 °F 30.08 in NNE 2.7 mph 3.5 mph 85 % 0.01 in 0.0 W/m2 CLR
04:16 34.9 °F 30.8 °F 30.08 in NNE 3.3 mph 4.6 mph 85 % 0.01 in 0.0 W/m2 CLR
04:21 34.9 °F 30.8 °F 30.08 in NNE 2.0 mph 3.5 mph 85 % 0.01 in 0.0 W/m2 CLR
04:26 34.9 °F 30.8 °F 30.08 in NNE 0.3 mph 2.3 mph 85 % 0.01 in 0.0 W/m2 CLR
04:31 34.7 °F 30.7 °F 30.07 in NNE 2.3 mph 4.6 mph 85 % 0.00 in 0.0 W/m2 CLR
04:36 34.7 °F 30.9 °F 30.07 in NNE 3.0 mph 3.5 mph 86 % 0.00 in 0.0 W/m2 CLR
04:41 34.6 °F 30.8 °F 30.07 in NNE 4.5 mph 6.0 mph 86 % 0.00 in 0.0 W/m2 CLR
04:46 34.6 °F 30.8 °F 30.06 in NNE 3.1 mph 4.6 mph 86 % 0.00 in 0.0 W/m2 CLR
04:51 34.5 °F 30.7 °F 30.07 in NNE 3.0 mph 4.6 mph 86 % 0.00 in 0.0 W/m2 CLR
04:56 34.5 °F 30.7 °F 30.07 in NNE 2.4 mph 4.0 mph 86 % 0.00 in 0.0 W/m2 CLR
05:01 34.5 °F 31.0 °F 30.07 in NNE 2.2 mph 3.5 mph 87 % 0.00 in 0.0 W/m2 CLR
05:06 34.5 °F 31.0 °F 30.07 in NNE 1.0 mph 3.5 mph 87 % 0.00 in 0.0 W/m2 CLR
05:11 34.5 °F 31.0 °F 30.06 in NNE 2.2 mph 3.5 mph 87 % 0.00 in 0.0 W/m2 CLR
05:16 34.5 °F 31.0 °F 30.06 in NNE 2.0 mph 3.5 mph 87 % 0.00 in 0.0 W/m2 CLR
05:21 34.5 °F 31.0 °F 30.06 in NNE 3.5 mph 4.6 mph 87 % 0.00 in 0.0 W/m2 CLR
05:26 34.4 °F 30.9 °F 30.06 in NNE 1.7 mph 3.5 mph 87 % 0.00 in 0.0 W/m2 CLR
05:31 34.4 °F 30.9 °F 30.05 in NNE 3.2 mph 4.0 mph 87 % 0.00 in 0.0 W/m2 CLR
05:36 34.4 °F 30.9 °F 30.04 in NE 2.7 mph 3.5 mph 87 % 0.00 in 0.0 W/m2 CLR
05:41 34.4 °F 30.9 °F 30.04 in NNE 2.8 mph 3.5 mph 87 % 0.00 in 0.0 W/m2 CLR
05:46 34.4 °F 30.9 °F 30.03 in NE 2.0 mph 4.0 mph 87 % 0.00 in 0.0 W/m2 CLR
05:51 34.4 °F 30.9 °F 30.03 in NE 3.1 mph 3.5 mph 87 % 0.00 in 0.0 W/m2 CLR
05:56 34.4 °F 30.9 °F 30.04 in NNE 2.1 mph 4.0 mph 87 % 0.00 in 0.0 W/m2 CLR
06:01 34.5 °F 31.0 °F 30.03 in NNE 1.6 mph 3.5 mph 87 % 0.00 in 0.0 W/m2 CLR
06:06 34.6 °F 31.1 °F 30.03 in NE 2.9 mph 3.5 mph 87 % 0.00 in 0.0 W/m2 CLR
06:11 34.8 °F 31.6 °F 30.04 in NE 0.8 mph 2.3 mph 88 % 0.00 in 0.0 W/m2 CLR
06:16 35.0 °F 31.5 °F 30.04 in NE 0.2 mph 2.3 mph 87 % 0.00 in 0.0 W/m2 CLR
06:21 35.1 °F 31.6 °F 30.04 in NE 2.4 mph 3.5 mph 87 % 0.00 in 0.0 W/m2 CLR
06:26 35.3 °F 31.8 °F 30.04 in ENE 1.9 mph 4.6 mph 87 % 0.00 in 0.0 W/m2 CLR
06:32 35.4 °F 31.6 °F 30.04 in SE 2.1 mph 3.5 mph 86 % 0.00 in 0.0 W/m2 CLR
06:37 35.5 °F 31.7 °F 30.04 in East 1.7 mph 3.5 mph 86 % 0.00 in 0.0 W/m2 CLR
06:42 35.4 °F 31.3 °F 30.04 in Calm     85 % 0.00 in 0.0 W/m2 CLR
06:47 35.4 °F 31.6 °F 30.04 in East 0.2 mph 3.0 mph 86 % 0.00 in 0.0 W/m2 CLR
06:52 35.4 °F 31.3 °F 30.04 in ESE 0.3 mph 3.5 mph 85 % 0.00 in 0.0 W/m2 CLR
06:57 35.3 °F 31.5 °F 30.04 in ESE 0.5 mph 3.5 mph 86 % 0.01 in 0.0 W/m2 RA
07:02 35.2 °F 31.4 °F 30.03 in SE 0.6 mph 5.0 mph 86 % 0.01 in 0.0 W/m2 RA
07:07 35.0 °F 31.2 °F 30.02 in East 1.5 mph 3.5 mph 86 % 0.01 in 0.0 W/m2 CLR
07:12 34.9 °F 31.4 °F 30.01 in East 1.3 mph 3.5 mph 87 % 0.01 in 0.0 W/m2 CLR
07:17 34.8 °F 31.3 °F 30.00 in East 3.2 mph 6.9 mph 87 % 0.01 in 0.0 W/m2 CLR
07:22 34.6 °F 31.1 °F 30.01 in East 4.2 mph 5.8 mph 87 % 0.01 in 0.0 W/m2 CLR
07:27 34.6 °F 31.1 °F 30.01 in East 2.3 mph 4.0 mph 87 % 0.01 in 0.0 W/m2 CLR
07:32 34.5 °F 31.3 °F 30.01 in NE 1.1 mph 3.5 mph 88 % 0.01 in 0.0 W/m2 CLR
07:37 34.4 °F 31.2 °F 30.02 in NE 0.4 mph 3.5 mph 88 % 0.01 in 0.0 W/m2 CLR
07:42 34.3 °F 31.1 °F 30.01 in East 3.2 mph 6.9 mph 88 % 0.01 in 0.0 W/m2 CLR
07:47 34.3 °F 31.1 °F 30.01 in ENE 0.1 mph 1.2 mph 88 % 0.01 in 0.0 W/m2 OVC
07:52 34.3 °F 31.1 °F 30.01 in NE 3.9 mph 7.0 mph 88 % 0.01 in 0.0 W/m2 OVC
07:57 34.2 °F 31.0 °F 30.01 in East 3.5 mph 5.8 mph 88 % 0.00 in 5.0 W/m2 OVC
08:02 34.1 °F 31.2 °F 30.00 in ENE 3.2 mph 4.6 mph 89 % 0.00 in 0.0 W/m2 OVC
08:07 34.1 °F 31.2 °F 30.01 in NE 4.5 mph 8.1 mph 89 % 0.00 in 0.0 W/m2 OVC
08:12 34.0 °F 31.1 °F 30.01 in NE 1.1 mph 3.5 mph 89 % 0.00 in 5.0 W/m2 OVC
08:17 33.9 °F 31.0 °F 30.00 in NE 4.4 mph 9.2 mph 89 % 0.00 in 9.0 W/m2 OVC
08:22 33.9 °F 31.0 °F 30.00 in NE 2.6 mph 3.5 mph 89 % 0.00 in 11.0 W/m2 OVC
08:27 33.8 °F 30.9 °F 30.00 in NE 1.7 mph 2.3 mph 89 % 0.00 in 14.0 W/m2 OVC
08:32 33.7 °F 30.8 °F 29.99 in ENE 2.1 mph 3.5 mph 89 % 0.00 in 14.0 W/m2 OVC
08:37 33.7 °F 30.8 °F 29.99 in ENE 4.1 mph 5.0 mph 89 % 0.00 in 16.0 W/m2 OVC
08:42 33.6 °F 30.7 °F 29.99 in ENE 3.0 mph 4.6 mph 89 % 0.00 in 14.0 W/m2 OVC
08:47 33.4 °F 30.5 °F 29.99 in ENE 2.6 mph 5.0 mph 89 % 0.01 in 14.0 W/m2 RA
08:52 33.4 °F 30.8 °F 29.99 in NE 2.8 mph 8.1 mph 90 % 0.01 in 14.0 W/m2 RA
08:57 33.3 °F 30.7 °F 29.99 in East 3.0 mph 3.5 mph 90 % 0.01 in 18.0 W/m2 OVC
09:02 33.2 °F 30.6 °F 29.99 in ENE 3.2 mph 4.6 mph 90 % 0.02 in 21.0 W/m2 RA
09:07 33.2 °F 30.6 °F 29.98 in East 1.2 mph 3.5 mph 90 % 0.03 in 19.0 W/m2 RA
09:12 33.1 °F 30.5 °F 29.97 in ENE 5.4 mph 11.5 mph 90 % 0.04 in 23.0 W/m2 RA
09:17 33.0 °F 30.4 °F 29.97 in ENE 2.8 mph 4.6 mph 90 % 0.05 in 23.0 W/m2 RA
09:22 32.9 °F 30.3 °F 29.97 in ENE 2.1 mph 4.6 mph 90 % 0.05 in 18.0 W/m2 RA
09:27 32.9 °F 30.3 °F 29.97 in NE 5.3 mph 9.2 mph 90 % 0.06 in 18.0 W/m2 RA
09:32 32.8 °F 30.2 °F 29.96 in East 3.6 mph 5.8 mph 90 % 0.06 in 16.0 W/m2 RA
09:37 32.7 °F 30.4 °F 29.96 in East 2.8 mph 4.0 mph 91 % 0.06 in 19.0 W/m2 OVC
09:42 32.7 °F 30.4 °F 29.96 in NE 5.4 mph 12.0 mph 91 % 0.06 in 30.0 W/m2 OVC
09:48 32.6 °F 30.3 °F 29.96 in NE 4.5 mph 6.9 mph 91 % 0.05 in 28.0 W/m2 OVC
09:53 32.5 °F 30.2 °F 29.96 in ENE 6.1 mph 9.2 mph 91 % 0.06 in 47.0 W/m2 RA
09:57 32.5 °F 30.2 °F 29.96 in NE 4.0 mph 5.8 mph 91 % 0.07 in 35.0 W/m2 RA
10:02 32.4 °F 30.1 °F 29.96 in ENE 3.1 mph 5.0 mph 91 % 0.07 in 32.0 W/m2 RA
10:07 32.3 °F 30.0 °F 29.95 in East 4.9 mph 7.0 mph 91 % 0.07 in 35.0 W/m2 RA
10:13 32.3 °F 30.0 °F 29.94 in ENE 6.6 mph 9.2 mph 91 % 0.07 in 37.0 W/m2 RA
10:18 32.3 °F 30.0 °F 29.93 in East 2.2 mph 6.9 mph 91 % 0.07 in 30.0 W/m2 RA
10:23 32.2 °F 29.9 °F 29.93 in ENE 4.7 mph 5.0 mph 91 % 0.07 in 30.0 W/m2 RA
10:28 32.2 °F 29.9 °F 29.92 in East 4.0 mph 5.8 mph 91 % 0.07 in 53.0 W/m2 RA
10:33 32.0 °F 29.7 °F 29.92 in East 4.2 mph 5.8 mph 91 % 0.08 in 35.0 W/m2 RA
10:38 32.0 °F 29.7 °F 29.93 in East 3.8 mph 8.1 mph 91 % 0.08 in 30.0 W/m2 RA
10:43 32.0 °F 29.7 °F 29.92 in East 5.4 mph 6.9 mph 91 % 0.08 in 32.0 W/m2 OVC
10:48 32.0 °F 29.7 °F 29.92 in ENE 2.3 mph 9.2 mph 91 % 0.09 in 32.0 W/m2 RA
10:53 32.0 °F 29.7 °F 29.92 in ENE 1.3 mph 3.5 mph 91 % 0.08 in 35.0 W/m2 RA
10:58 32.0 °F 29.7 °F 29.92 in ENE 3.8 mph 6.9 mph 91 % 0.08 in 33.0 W/m2 RA
11:03 32.0 °F 29.7 °F 29.92 in ENE 3.0 mph 3.5 mph 91 % 0.07 in 32.0 W/m2 RA
11:08 32.0 °F 29.7 °F 29.92 in ENE 0.2 mph 1.2 mph 91 % 0.07 in 26.0 W/m2 RA
11:13 32.0 °F 29.7 °F 29.92 in East 1.6 mph 3.5 mph 91 % 0.06 in 25.0 W/m2 RA
11:18 32.0 °F 29.9 °F 29.91 in NE 0.3 mph 2.3 mph 92 % 0.05 in 32.0 W/m2 OVC
11:23 32.1 °F 30.0 °F 29.91 in Calm     92 % 0.04 in 32.0 W/m2 OVC
11:28 32.1 °F 30.0 °F 29.90 in NE 1.3 mph 3.5 mph 92 % 0.04 in 28.0 W/m2 OVC
11:33 32.1 °F 30.0 °F 29.89 in East 1.8 mph 3.5 mph 92 % 0.03 in 46.0 W/m2 OVC
11:38 32.1 °F 30.0 °F 29.89 in ESE 3.3 mph 5.8 mph 92 % 0.04 in 37.0 W/m2 RA
11:43 32.1 °F 30.0 °F 29.89 in ENE 2.8 mph 5.0 mph 92 % 0.04 in 21.0 W/m2 RA
11:48 32.2 °F 30.1 °F 29.88 in NE 1.1 mph 3.0 mph 92 % 0.03 in 28.0 W/m2 OVC
11:53 32.2 °F 30.1 °F 29.88 in NE 0.5 mph 3.5 mph 92 % 0.03 in 28.0 W/m2 OVC
11:58 32.2 °F 30.1 °F 29.88 in NE 2.3 mph 6.9 mph 92 % 0.03 in 25.0 W/m2 RA
12:03 32.2 °F 30.1 °F 29.88 in ENE 0.5 mph 4.6 mph 92 % 0.03 in 30.0 W/m2 RA
12:08 32.2 °F 30.1 °F 29.88 in ESE 0.9 mph 4.0 mph 92 % 0.02 in 30.0 W/m2 OVC
12:13 32.3 °F 30.2 °F 29.87 in East 0.3 mph 3.5 mph 92 % 0.02 in 33.0 W/m2 OVC
12:18 32.3 °F 30.2 °F 29.86 in East 1.0 mph 3.5 mph 92 % 0.03 in 37.0 W/m2 RA
12:23 32.3 °F 30.2 °F 29.86 in East 1.2 mph 3.5 mph 92 % 0.03 in 35.0 W/m2 RA
12:28 32.3 °F 30.2 °F 29.85 in East 0.5 mph 2.3 mph 92 % 0.03 in 42.0 W/m2 OVC
12:33 32.3 °F 30.2 °F 29.85 in Calm   1.2 mph 92 % 0.03 in 35.0 W/m2 OVC
12:38 32.4 °F 30.3 °F 29.85 in Calm   1.0 mph 92 % 0.02 in 49.0 W/m2 OVC
12:43 32.4 °F 30.3 °F 29.84 in NE 0.1 mph 3.5 mph 92 % 0.02 in 44.0 W/m2 OVC
12:48 32.5 °F 30.4 °F 29.83 in Calm   1.2 mph 92 % 0.03 in 39.0 W/m2 RA
12:54 32.5 °F 30.4 °F 29.83 in ENE 1.2 mph 5.8 mph 92 % 0.03 in 39.0 W/m2 RA
12:59 32.5 °F 30.4 °F 29.83 in NE 0.1 mph 1.2 mph 92 % 0.02 in 30.0 W/m2 OVC
13:03 32.4 °F 30.3 °F 29.82 in ENE 0.8 mph 3.5 mph 92 % 0.02 in 39.0 W/m2 OVC
13:08 32.5 °F 30.4 °F 29.81 in ENE 0.7 mph 2.3 mph 92 % 0.02 in 47.0 W/m2 OVC
13:14 32.5 °F 30.4 °F 29.80 in ENE 0.4 mph 3.5 mph 92 % 0.02 in 39.0 W/m2 OVC
13:19 32.5 °F 30.4 °F 29.80 in ENE 1.5 mph 3.5 mph 92 % 0.01 in 42.0 W/m2 OVC
13:24 32.4 °F 30.3 °F 29.80 in NE 0.8 mph 3.5 mph 92 % 0.01 in 33.0 W/m2 OVC
13:29 32.6 °F 30.5 °F 29.81 in NNE 0.6 mph 4.0 mph 92 % 0.02 in 18.0 W/m2 RA
13:34 32.6 °F 30.5 °F 29.79 in Calm     92 % 0.02 in 32.0 W/m2 RA
13:39 32.5 °F 30.4 °F 29.79 in NNE 2.7 mph 4.6 mph 92 % 0.02 in 37.0 W/m2 OVC
13:44 32.7 °F 30.6 °F 29.79 in North 2.3 mph 3.5 mph 92 % 0.02 in 18.0 W/m2 OVC
13:49 32.5 °F 30.4 °F 29.78 in ENE 2.1 mph 3.5 mph 92 % 0.01 in 40.0 W/m2 OVC
13:54 32.5 °F 30.4 °F 29.79 in North 1.4 mph 3.5 mph 92 % 0.01 in 23.0 W/m2 OVC
13:59 32.6 °F 30.5 °F 29.78 in NNE 1.2 mph 4.0 mph 92 % 0.01 in 25.0 W/m2 OVC
14:04 32.5 °F 30.4 °F 29.77 in ENE 0.5 mph 2.3 mph 92 % 0.01 in 37.0 W/m2 OVC
14:09 32.5 °F 30.7 °F 29.78 in North 1.0 mph 3.5 mph 93 % 0.01 in 25.0 W/m2 OVC
14:14 32.5 °F 30.4 °F 29.76 in ENE 0.8 mph 3.5 mph 92 % 0.01 in 37.0 W/m2 OVC
14:19 32.4 °F 30.3 °F 29.77 in NNE 0.2 mph 4.0 mph 92 % 0.02 in 25.0 W/m2 RA
14:24 32.4 °F 30.6 °F 29.76 in NE 1.2 mph 3.5 mph 93 % 0.02 in 19.0 W/m2 RA
14:29 32.5 °F 30.7 °F 29.76 in NE 0.1 mph 1.2 mph 93 % 0.01 in 21.0 W/m2 OVC
14:34 32.5 °F 30.7 °F 29.75 in NE 4.8 mph 9.2 mph 93 % 0.01 in 21.0 W/m2 OVC
14:39 32.5 °F 30.7 °F 29.75 in NE 1.7 mph 3.5 mph 93 % 0.01 in 28.0 W/m2 OVC
14:44 32.5 °F 30.7 °F 29.77 in North 0.4 mph 3.5 mph 93 % 0.01 in 18.0 W/m2 OVC
14:49 32.4 °F 30.6 °F 29.75 in NE 0.5 mph 2.0 mph 93 % 0.01 in 28.0 W/m2 OVC
14:54 32.5 °F 30.7 °F 29.76 in Calm     93 % 0.01 in 21.0 W/m2 OVC
14:59 32.5 °F 30.7 °F 29.75 in NNE 3.1 mph 4.6 mph 93 % 0.01 in 23.0 W/m2 OVC
15:04 32.6 °F 30.8 °F 29.75 in East 0.6 mph 3.0 mph 93 % 0.01 in 37.0 W/m2 OVC
15:09 32.6 °F 30.8 °F 29.75 in NNW 3.2 mph 4.0 mph 93 % 0.01 in 21.0 W/m2 OVC
15:14 32.7 °F 30.9 °F 29.75 in NNW 0.3 mph 2.3 mph 93 % 0.01 in 32.0 W/m2 OVC
15:19 32.6 °F 30.8 °F 29.73 in NNE 2.6 mph 4.6 mph 93 % 0.00 in 14.0 W/m2 OVC
15:24 32.6 °F 30.8 °F 29.74 in Calm   2.3 mph 93 % 0.00 in 33.0 W/m2 OVC
15:29 32.5 °F 30.7 °F 29.73 in NNE 0.2 mph 1.2 mph 93 % 0.00 in 23.0 W/m2 OVC
15:34 32.7 °F 30.9 °F 29.73 in Calm     93 % 0.00 in 19.0 W/m2 OVC
15:39 32.6 °F 30.8 °F 29.72 in Calm     93 % 0.00 in 25.0 W/m2 OVC
15:44 32.6 °F 30.8 °F 29.73 in Calm   4.6 mph 93 % 0.00 in 18.0 W/m2 OVC
15:50 32.7 °F 30.9 °F 29.73 in Calm     93 % 0.00 in 14.0 W/m2 OVC
15:55 32.7 °F 30.9 °F 29.74 in Calm     93 % 0.00 in 16.0 W/m2 OVC
16:00 32.7 °F 30.9 °F 29.74 in Calm     93 % 0.00 in 18.0 W/m2 OVC
16:05 32.7 °F 30.9 °F 29.75 in Calm   1.2 mph 93 % 0.00 in 14.0 W/m2 OVC
16:10 32.6 °F 30.8 °F 29.75 in Calm     93 % 0.00 in 11.0 W/m2 OVC
16:15 32.7 °F 30.9 °F 29.75 in North 0.1 mph 1.2 mph 93 % 0.01 in 12.0 W/m2 RA
16:20 32.7 °F 30.9 °F 29.74 in Calm     93 % 0.01 in 7.0 W/m2 RA
16:25 32.7 °F 30.9 °F 29.75 in Calm     93 % 0.01 in 7.0 W/m2
16:30 32.7 °F 30.9 °F 29.75 in Calm     93 % 0.01 in 9.0 W/m2 OVC
16:35 32.7 °F 30.9 °F 29.76 in Calm   1.0 mph 93 % 0.00 in 12.0 W/m2 OVC
16:40 32.6 °F 30.8 °F 29.75 in Calm     93 % 0.00 in 7.0 W/m2 OVC
16:45 32.6 °F 31.1 °F 29.76 in Calm     94 % 0.01 in 5.0 W/m2 OVC
16:50 32.6 °F 31.1 °F 29.76 in NW 1.6 mph 3.5 mph 94 % 0.02 in 5.0 W/m2 RA
16:55 32.6 °F 31.1 °F 29.76 in Calm   1.2 mph 94 % 0.02 in 5.0 W/m2 RA
17:00 32.6 °F 31.1 °F 29.77 in NW 1.6 mph 1.6 mph 94 % 0.02 in 0.0 W/m2
17:05 32.6 °F 31.1 °F 29.77 in WNW 0.9 mph 4.0 mph 94 % 0.02 in 0.0 W/m2 OVC
17:10 32.7 °F 31.2 °F 29.77 in NW 2.8 mph 3.5 mph 94 % 0.02 in 0.0 W/m2 OVC
17:15 32.6 °F 31.1 °F 29.77 in NW 1.1 mph 3.0 mph 94 % 0.01 in 5.0 W/m2 OVC
17:20 32.7 °F 31.2 °F 29.77 in NW 0.6 mph 2.3 mph 94 % 0.01 in 0.0 W/m2 OVC
17:25 32.7 °F 31.2 °F 29.77 in WNW 0.1 mph 1.2 mph 94 % 0.01 in 0.0 W/m2 OVC
17:30 32.7 °F 31.2 °F 29.77 in NW 1.7 mph 3.5 mph 94 % 0.01 in 0.0 W/m2
17:35 32.8 °F 31.3 °F 29.76 in Calm     94 % 0.01 in 0.0 W/m2
17:40 32.7 °F 31.2 °F 29.77 in Calm     94 % 0.01 in 0.0 W/m2
17:45 32.7 °F 31.2 °F 29.76 in Calm     94 % 0.01 in 0.0 W/m2
17:50 32.7 °F 31.2 °F 29.77 in Calm     94 % 0.00 in 0.0 W/m2 CLR
17:55 32.8 °F 31.3 °F 29.77 in Calm     94 % 0.00 in 0.0 W/m2 CLR
18:00 32.9 °F 31.4 °F 29.77 in NW 0.1 mph 1.2 mph 94 % 0.00 in 0.0 W/m2 CLR
18:05 32.8 °F 31.3 °F 29.77 in Calm     94 % 0.00 in 0.0 W/m2 CLR
18:10 32.8 °F 31.3 °F 29.78 in Calm     94 % 0.00 in 0.0 W/m2 CLR
18:15 32.8 °F 31.3 °F 29.78 in Calm     94 % 0.00 in 0.0 W/m2 CLR
18:20 32.8 °F 31.3 °F 29.78 in WNW 0.2 mph 2.0 mph 94 % 0.00 in 0.0 W/m2 CLR
18:25 32.8 °F 31.3 °F 29.78 in Calm     94 % 0.00 in 0.0 W/m2 CLR
18:30 32.7 °F 31.2 °F 29.78 in WNW 0.1 mph 1.2 mph 94 % 0.00 in 0.0 W/m2 CLR
18:35 32.7 °F 31.2 °F 29.77 in Calm   2.3 mph 94 % 0.00 in 0.0 W/m2 CLR
18:40 32.7 °F 31.2 °F 29.77 in West 1.2 mph 2.3 mph 94 % 0.00 in 0.0 W/m2 CLR
18:45 32.6 °F 31.1 °F 29.77 in West 1.6 mph 2.3 mph 94 % 0.00 in 0.0 W/m2 CLR
18:51 32.5 °F 31.0 °F 29.76 in West 1.7 mph 3.5 mph 94 % 0.00 in 0.0 W/m2 CLR
18:56 32.4 °F 30.9 °F 29.77 in West 0.1 mph 1.2 mph 94 % 0.00 in 0.0 W/m2 CLR
19:01 32.2 °F 30.7 °F 29.77 in Calm     94 % 0.00 in 0.0 W/m2 CLR
19:05 32.1 °F 30.6 °F 29.77 in Calm     94 % 0.00 in 0.0 W/m2 CLR
19:11 32.2 °F 30.7 °F 29.77 in Calm     94 % 0.00 in 0.0 W/m2 CLR
19:16 32.2 °F 30.7 °F 29.77 in Calm     94 % 0.00 in 0.0 W/m2 CLR
19:21 32.2 °F 30.7 °F 29.77 in West 1.9 mph 3.0 mph 94 % 0.00 in 0.0 W/m2 CLR
19:26 32.2 °F 30.7 °F 29.76 in Calm   1.2 mph 94 % 0.00 in 0.0 W/m2 CLR
19:31 32.2 °F 30.7 °F 29.76 in West 0.6 mph 2.0 mph 94 % 0.00 in 0.0 W/m2 CLR
19:36 32.2 °F 30.7 °F 29.76 in West 1.5 mph 2.3 mph 94 % 0.00 in 0.0 W/m2 CLR
19:41 32.2 °F 30.7 °F 29.76 in Calm     94 % 0.00 in 0.0 W/m2 CLR
19:46 32.2 °F 30.7 °F 29.76 in Calm   1.2 mph 94 % 0.00 in 0.0 W/m2 CLR
19:51 32.1 °F 30.6 °F 29.76 in Calm   3.5 mph 94 % 0.00 in 0.0 W/m2 CLR
19:56 32.1 °F 30.6 °F 29.76 in Calm     94 % 0.00 in 0.0 W/m2 CLR
20:01 32.1 °F 30.6 °F 29.75 in Calm     94 % 0.00 in 0.0 W/m2 CLR
20:06 32.0 °F 30.5 °F 29.75 in Calm     94 % 0.00 in 0.0 W/m2 CLR
20:11 32.0 °F 30.5 °F 29.75 in Calm     94 % 0.00 in 0.0 W/m2 CLR
20:16 32.1 °F 30.6 °F 29.75 in Calm     94 % 0.00 in 0.0 W/m2 CLR
20:21 32.1 °F 30.6 °F 29.75 in WSW 0.2 mph 1.2 mph 94 % 0.00 in 0.0 W/m2 CLR
20:26 32.2 °F 30.7 °F 29.75 in Calm   1.2 mph 94 % 0.00 in 0.0 W/m2 CLR
20:31 32.3 °F 30.8 °F 29.74 in Calm   1.2 mph 94 % 0.00 in 0.0 W/m2 CLR
20:36 32.2 °F 30.7 °F 29.74 in Calm     94 % 0.00 in 0.0 W/m2 CLR
20:41 32.1 °F 30.6 °F 29.75 in WSW 0.4 mph 1.2 mph 94 % 0.00 in 0.0 W/m2 CLR
20:46 32.1 °F 30.6 °F 29.74 in Calm     94 % 0.00 in 0.0 W/m2 CLR
20:51 32.1 °F 30.6 °F 29.74 in WSW 1.0 mph 3.5 mph 94 % 0.00 in 0.0 W/m2 CLR
20:56 32.2 °F 30.7 °F 29.74 in Calm     94 % 0.00 in 0.0 W/m2 CLR
21:01 32.3 °F 30.8 °F 29.73 in WSW 1.4 mph 2.3 mph 94 % 0.00 in 0.0 W/m2 CLR
21:06 32.3 °F 30.8 °F 29.73 in WSW 0.4 mph 1.2 mph 94 % 0.00 in 0.0 W/m2 CLR
21:11 32.3 °F 30.8 °F 29.73 in SW 3.2 mph 5.8 mph 94 % 0.00 in 0.0 W/m2 CLR
21:16 32.3 °F 30.8 °F 29.73 in West 0.3 mph 3.5 mph 94 % 0.00 in 0.0 W/m2 CLR
21:21 32.4 °F 30.9 °F 29.72 in WSW 1.9 mph 3.5 mph 94 % 0.00 in 0.0 W/m2 CLR
21:26 32.4 °F 30.9 °F 29.72 in WNW 3.0 mph 5.0 mph 94 % 0.00 in 0.0 W/m2 CLR
21:31 32.3 °F 31.0 °F 29.70 in West 2.9 mph 6.0 mph 95 % 0.00 in 0.0 W/m2 CLR
21:36 32.3 °F 31.0 °F 29.70 in Calm     95 % 0.00 in 0.0 W/m2 CLR
21:41 32.3 °F 31.0 °F 29.72 in WSW 4.2 mph 6.9 mph 95 % 0.00 in 0.0 W/m2 CLR
21:46 32.4 °F 31.1 °F 29.72 in WSW 2.2 mph 3.5 mph 95 % 0.00 in 0.0 W/m2 CLR
21:51 32.3 °F 31.0 °F 29.71 in WSW 3.7 mph 4.6 mph 95 % 0.00 in 0.0 W/m2 CLR
21:56 32.3 °F 31.0 °F 29.70 in SW 2.9 mph 8.1 mph 95 % 0.00 in 0.0 W/m2 CLR
22:01 32.3 °F 31.0 °F 29.70 in WSW 2.4 mph 8.1 mph 95 % 0.00 in 0.0 W/m2 CLR
22:06 32.3 °F 31.0 °F 29.70 in West 3.3 mph 5.0 mph 95 % 0.00 in 0.0 W/m2 CLR
22:11 32.3 °F 31.0 °F 29.70 in SW 2.2 mph 4.0 mph 95 % 0.00 in 0.0 W/m2 CLR
22:16 32.3 °F 31.0 °F 29.70 in WSW 5.5 mph 8.1 mph 95 % 0.00 in 0.0 W/m2 CLR
22:21 32.4 °F 31.1 °F 29.70 in SW 5.2 mph 7.0 mph 95 % 0.00 in 0.0 W/m2 CLR
22:27 32.3 °F 31.0 °F 29.70 in WSW 4.9 mph 8.1 mph 95 % 0.00 in 0.0 W/m2 CLR
22:32 32.4 °F 31.1 °F 29.69 in WSW 2.9 mph 4.0 mph 95 % 0.00 in 0.0 W/m2 CLR
22:37 32.4 °F 31.1 °F 29.69 in SW 6.2 mph 11.5 mph 95 % 0.00 in 0.0 W/m2 CLR
22:42 32.5 °F 31.2 °F 29.69 in SW 3.5 mph 8.1 mph 95 % 0.00 in 0.0 W/m2 CLR
22:47 32.5 °F 31.2 °F 29.69 in WSW 5.0 mph 9.2 mph 95 % 0.00 in 0.0 W/m2 CLR
22:52 32.6 °F 31.3 °F 29.69 in WSW 8.3 mph 10.4 mph 95 % 0.00 in 0.0 W/m2 CLR
22:57 32.8 °F 31.5 °F 29.69 in West 6.2 mph 11.5 mph 95 % 0.00 in 0.0 W/m2 CLR
23:02 33.1 °F 31.8 °F 29.69 in West 7.9 mph 8.1 mph 95 % 0.00 in 0.0 W/m2 CLR
23:07 33.5 °F 32.2 °F 29.70 in WSW 6.6 mph 15.0 mph 95 % 0.00 in 0.0 W/m2 CLR
23:12 33.7 °F 32.4 °F 29.69 in WSW 5.5 mph 12.7 mph 95 % 0.00 in 0.0 W/m2 CLR
23:17 33.8 °F 32.5 °F 29.70 in SW 3.0 mph 5.0 mph 95 % 0.00 in 0.0 W/m2 CLR
23:22 33.6 °F 32.3 °F 29.70 in SW 9.0 mph 17.0 mph 95 % 0.00 in 0.0 W/m2 CLR
23:27 33.9 °F 32.6 °F 29.70 in West 9.2 mph 17.3 mph 95 % 0.00 in 0.0 W/m2 CLR
23:32 34.6 °F 33.3 °F 29.70 in WSW 8.7 mph 17.3 mph 95 % 0.00 in 0.0 W/m2 CLR
23:37 34.9 °F 33.6 °F 29.70 in West 7.7 mph 17.3 mph 95 % 0.00 in 0.0 W/m2 CLR
23:42 35.1 °F 33.8 °F 29.69 in WSW 8.9 mph 17.3 mph 95 % 0.00 in 0.0 W/m2 CLR
23:47 35.3 °F 34.0 °F 29.69 in NW 10.9 mph 23.0 mph 95 % 0.00 in 0.0 W/m2 CLR
23:52 35.6 °F 34.0 °F 29.70 in NW 18.6 mph 34.5 mph 94 % 0.00 in 0.0 W/m2 CLR
23:57 35.9 °F 34.3 °F 29.70 in WSW 10.6 mph 16.1 mph 94 % 0.00 in 0.0 W/m2 CLR
Air Products Campus Weather
Compliments of Weather Underground - 3.5 mb